CYHD - Dryden Regional Airport

Pirep is a free, collaborative database of all public and private airports located within the United States. All pilots are welcome to contribute, edit, and improve any airport they have local knowledge about, no registration required.
Are you familiar with this airport? Help out other pilots by adding your local knowledge.
Uploaded photos will be licensed under a CC BY-SA 4.0 license. Please only upload photos you have the rights to use.
Tags
Public
Undocu­mented
METAR / TAF
Webcam
Edit Tags
Food
Camping
Lodging
Car Rental
Bicycles
Swimming
Golfing
Fishing
Hot Springs
Museum
Flying Clubs
Airpark
Upcoming Events
No upcoming events. Is anything happening here soon?
*
*
*

Where exactly on/near the airport is this event taking place?

Is there a webpage with more information for this event?

Who should be contacted for more information?

What is this event all about?

Repeat every
Description
Transient Parking
Fuel Location
Landing & Tie-down Fees
Crew Car Availability
Flying Clubs
WiFi Access
Airport Statistics
Location: Dryden, Ontario
Elevation: 1,354ft
Runway 12/30: 6,000ft
Warning: This airport was imported from a non-authoritative source. It's public/private status may not be accurate.
Access: Open to the public
Current Weather — VFR
  • Weather data is strictly informational and not for flight planning purposes.
  • METAR
    2024-05-24 21:00:00 CDT
    Ceiling Wind Temperature Dewpoint Weather Visbility
    9,400ft 100° @ 12kt, gusts 24kt 48°F 41°F N/A 9SM
    Clouds: Few @ 6,600ft, Overcast @ 9,400ft
    Raw: CYHD 250200Z AUTO 10012G24KT 9SM FEW066 OVC094 09/05 A2949 RMK SLP002
  • TAF
    2024-05-24 21:00:00 CDT – 2024-05-25 01:00:00 CDT
    Ceiling Wind Weather Visbility
    3,000ft 110° @ 12kt, gusts 22kt N/A 6SM
    Clouds: Broken @ 3,000ft, Overcast @ 9,000ft
    Raw: TAF CYHD 250140Z 2502/2514 11012G22KT P6SM BKN030 OVC090 TEMPO 2502/2506 5SM -RA -DZ BR OVC012 FM250600 11012G22KT P6SM -SHRA OVC015 TEMPO 2506/2514 5SM -SHRA BR OVC007 BECMG 2509/2511 19010KT RMK FCST BASED ON AUTO OBS. NXT FCST BY 250800Z
  • TAF
    2024-05-24 21:00:00 CDT – 2024-05-25 01:00:00 CDT
    Ceiling Wind Weather Visbility
    1,200ft ° @ kt Light rain, light drizzle, mist 5SM
    Clouds: Overcast @ 1,200ft
    Raw: TAF CYHD 250140Z 2502/2514 11012G22KT P6SM BKN030 OVC090 TEMPO 2502/2506 5SM -RA -DZ BR OVC012 FM250600 11012G22KT P6SM -SHRA OVC015 TEMPO 2506/2514 5SM -SHRA BR OVC007 BECMG 2509/2511 19010KT RMK FCST BASED ON AUTO OBS. NXT FCST BY 250800Z
  • TAF
    2024-05-25 01:00:00 CDT – 2024-05-25 04:00:00 CDT
    Ceiling Wind Weather Visbility
    1,500ft 110° @ 12kt, gusts 22kt Light rain showers 6SM
    Clouds: Overcast @ 1,500ft
    Raw: TAF CYHD 250140Z 2502/2514 11012G22KT P6SM BKN030 OVC090 TEMPO 2502/2506 5SM -RA -DZ BR OVC012 FM250600 11012G22KT P6SM -SHRA OVC015 TEMPO 2506/2514 5SM -SHRA BR OVC007 BECMG 2509/2511 19010KT RMK FCST BASED ON AUTO OBS. NXT FCST BY 250800Z
  • TAF
    2024-05-25 01:00:00 CDT – 2024-05-25 09:00:00 CDT
    Ceiling Wind Weather Visbility
    700ft ° @ kt Light rain showers, mist 5SM
    Clouds: Overcast @ 700ft
    Raw: TAF CYHD 250140Z 2502/2514 11012G22KT P6SM BKN030 OVC090 TEMPO 2502/2506 5SM -RA -DZ BR OVC012 FM250600 11012G22KT P6SM -SHRA OVC015 TEMPO 2506/2514 5SM -SHRA BR OVC007 BECMG 2509/2511 19010KT RMK FCST BASED ON AUTO OBS. NXT FCST BY 250800Z
  • TAF
    2024-05-25 04:00:00 CDT – 2024-05-25 09:00:00 CDT
    Ceiling Wind Weather Visbility
    1,500ft 190° @ 10kt Light rain showers 6SM
    Clouds: Overcast @ 1,500ft
    Raw: TAF CYHD 250140Z 2502/2514 11012G22KT P6SM BKN030 OVC090 TEMPO 2502/2506 5SM -RA -DZ BR OVC012 FM250600 11012G22KT P6SM -SHRA OVC015 TEMPO 2506/2514 5SM -SHRA BR OVC007 BECMG 2509/2511 19010KT RMK FCST BASED ON AUTO OBS. NXT FCST BY 250800Z
Click/tap to add an annotation marker to the map
Direct links to live image URLs will be displayed inline on this page. URLs to separate webpages will be linked to.
URL:
Direct links to live image URLs will be displayed inline on this page. URLs to separate webpages will be linked to.
URL:
Comments
Leave a comment What was your experience like at this airport?